Lubbock, TX (79424)

3:12 AM CDT on August 27, 2016 (GMT -0500)
Woodlank Park | | Change Station

Elev 3264 ft 33.52 °N, 101.92 °W | Updated 31 seconds ago

Partly Cloudy
Partly Cloudy
63.3 °F
Feels Like 63.3 °F
N
0.0
Wind Variable Wind from NNW

Today
High -- | Low -- °F
--% Chance of Precip.
Yesterday
High -- | Low -- °F
Precip. -- in
Pressure 29.99 in
Visibility 10.0 miles
Clouds Few 6000 ft
Few 25000 ft
Dew Point 61 °F
Humidity 92%
Rainfall 0.00 in
Snow Depth Not available.
7:18 AM 8:18 PM
Waning Crescent, 26% visible
METAR KLBB 270753Z 02004KT 10SM FEW060 FEW250 18/17 A3011 RMK AO2 SLP153 OCNL LTGIC DSNT W CB DSNT W MOV NE T01830167
Pressure 29.99 in
Visibility 10.0 miles
Clouds Few 6000 ft
Few 25000 ft
Dew Point 61 °F
Humidity 92%
Rainfall 0.00 in
Snow Depth Not available.
7:18 AM 8:18 PM
Waning Crescent, 26% visible
METAR KLBB 270753Z 02004KT 10SM FEW060 FEW250 18/17 A3011 RMK AO2 SLP153 OCNL LTGIC DSNT W CB DSNT W MOV NE T01830167

10-Day Weather Forecast

Almanac

Astronomy

Aug. 27, 2016 Rise Set
Actual Time
Civil Twilight
Nautical Twilight
Astronomical Twilight
Moon
Length of Visible Light
Length of Day
Tomorrow will be .
, % of the Moon is Illuminated

Today's Extremes

State Highs State Lows

Community

WunderPhotos

Upload Photos

1,935,303 photos uploaded!

WunderBlog® & News

Nearby

Air Quality

  Air Quality AQ Index Pollutant
Not available.

Snow Depth

Station Depth Elevation

Earthquake Activity

City Distance Mag. Time & Date
Minimum magnitude displayed is 2.5.

Coastal Water Temperatures

Place Temperature

Stations

Nearby Weather Stations

Station Location Temp. Windchill Dew Point Humidity Wind Precip. Elev Updated Type
                   

Watches & Warnings

There are currently no watches in effect.